createdAt,value
2018-04-15T00:02:07.401Z,9.80
2018-04-15T00:04:35.661Z,9.80
2018-04-15T00:07:04.676Z,9.70
2018-04-15T00:09:32.976Z,9.60
2018-04-15T00:12:01.236Z,9.70
2018-04-15T00:14:29.527Z,9.60
2018-04-15T00:16:57.801Z,9.70
2018-04-15T00:19:26.060Z,9.60
2018-04-15T00:21:54.365Z,9.60
2018-04-15T00:24:22.644Z,9.60
2018-04-15T00:26:51.021Z,9.60
2018-04-15T00:29:19.275Z,9.70
2018-04-15T00:31:47.532Z,9.70
2018-04-15T00:34:15.793Z,9.70
2018-04-15T00:36:44.817Z,9.70
2018-04-15T00:39:13.113Z,9.70
2018-04-15T00:41:41.364Z,9.70
2018-04-15T00:44:09.624Z,9.80
2018-04-15T00:46:37.878Z,9.80
2018-04-15T00:49:06.884Z,9.80
2018-04-15T00:51:35.139Z,9.80
2018-04-15T00:54:16.096Z,9.80
2018-04-15T00:56:44.461Z,9.80
2018-04-15T00:59:12.724Z,9.70
2018-04-15T01:01:40.985Z,9.80
2018-04-15T01:04:09.275Z,9.70
2018-04-15T01:06:37.535Z,9.70
2018-04-15T01:09:05.841Z,9.70
2018-04-15T01:11:34.103Z,9.60
2018-04-15T01:14:02.347Z,9.60
2018-04-15T01:16:30.604Z,9.60
2018-04-15T01:18:59.624Z,9.50
2018-04-15T01:21:27.919Z,9.50
2018-04-15T01:23:56.193Z,9.50
2018-04-15T01:26:24.467Z,9.50
2018-04-15T01:28:52.712Z,9.50
2018-04-15T01:31:21.749Z,9.60
2018-04-15T01:33:49.999Z,9.60
2018-04-15T01:36:18.300Z,9.60
2018-04-15T01:38:46.578Z,9.60
2018-04-15T01:41:14.943Z,9.50
2018-04-15T01:43:43.191Z,9.50
2018-04-15T01:46:11.442Z,9.50
2018-04-15T01:48:40.459Z,9.60
2018-04-15T01:51:08.707Z,9.60
2018-04-15T01:53:37.725Z,9.60
2018-04-15T01:56:06.086Z,9.60
2018-04-15T01:58:34.323Z,9.60
2018-04-15T02:01:02.564Z,9.60
2018-04-15T02:03:30.860Z,9.60
2018-04-15T02:05:59.103Z,9.60
2018-04-15T02:08:27.365Z,9.80
2018-04-15T02:10:56.376Z,9.80
2018-04-15T02:13:24.635Z,9.80
2018-04-15T02:15:53.656Z,9.90
2018-04-15T02:18:21.948Z,9.90
2018-04-15T02:20:50.196Z,9.90
2018-04-15T02:23:18.471Z,9.80
2018-04-15T02:25:46.781Z,9.70
2018-04-15T02:28:15.032Z,9.50
2018-04-15T02:30:43.324Z,9.40
2018-04-15T02:33:11.609Z,9.40
2018-04-15T02:35:39.852Z,9.30
2018-04-15T02:38:08.113Z,9.30
2018-04-15T02:40:37.133Z,9.10
2018-04-15T02:43:05.384Z,9.10
2018-04-15T02:45:33.637Z,9.10
2018-04-15T02:48:02.661Z,9.20
2018-04-15T02:50:30.908Z,9.20
2018-04-15T02:52:59.962Z,9.30
2018-04-15T02:55:28.205Z,9.30
2018-04-15T02:57:56.511Z,9.30
2018-04-15T03:00:24.803Z,9.40
2018-04-15T03:02:53.166Z,9.50
2018-04-15T03:05:21.429Z,9.50
2018-04-15T03:07:49.693Z,9.50
2018-04-15T03:10:17.938Z,9.50
2018-04-15T03:12:47.081Z,9.50
2018-04-15T03:15:15.328Z,9.50
2018-04-15T03:17:43.576Z,9.50
2018-04-15T03:20:11.830Z,9.50
2018-04-15T03:22:40.185Z,9.60
2018-04-15T03:25:08.442Z,9.60
2018-04-15T03:27:36.729Z,9.60
2018-04-15T03:30:04.980Z,9.50
2018-04-15T03:32:33.233Z,9.50
2018-04-15T03:35:02.257Z,9.50
2018-04-15T03:37:30.507Z,9.50
2018-04-15T03:39:59.546Z,9.50
2018-04-15T03:42:27.816Z,9.50
2018-04-15T03:44:56.076Z,9.60
2018-04-15T03:47:24.315Z,9.60
2018-04-15T03:49:53.360Z,9.70
2018-04-15T03:52:21.608Z,9.70
2018-04-15T03:54:49.867Z,9.70
2018-04-15T03:57:18.886Z,9.70
2018-04-15T03:59:47.140Z,9.70
2018-04-15T04:02:16.186Z,9.70
2018-04-15T04:04:44.440Z,9.70
2018-04-15T04:07:12.732Z,9.70
2018-04-15T04:09:40.983Z,9.70
2018-04-15T04:12:09.229Z,9.70
2018-04-15T04:14:38.278Z,9.70
2018-04-15T04:17:06.524Z,9.70
2018-04-15T04:19:46.588Z,9.70
2018-04-15T04:22:26.792Z,9.60
2018-04-15T04:25:07.019Z,9.50
2018-04-15T04:27:35.272Z,9.50
2018-04-15T04:30:03.582Z,9.50
2018-04-15T04:32:31.820Z,9.60
2018-04-15T04:35:00.082Z,9.50
2018-04-15T04:37:28.379Z,9.50
2018-04-15T04:39:56.642Z,9.40
2018-04-15T04:42:24.941Z,9.40
2018-04-15T04:44:53.216Z,9.40
2018-04-15T04:47:21.488Z,9.40
2018-04-15T04:49:49.759Z,9.50
2018-04-15T04:52:18.076Z,9.50
2018-04-15T04:54:46.321Z,9.50
2018-04-15T04:57:14.584Z,9.50
2018-04-15T04:59:42.861Z,9.40
2018-04-15T05:02:11.133Z,9.40
2018-04-15T05:04:39.435Z,9.40
2018-04-15T05:07:07.788Z,9.30
2018-04-15T05:09:36.035Z,9.30
2018-04-15T05:12:04.293Z,9.40
2018-04-15T05:14:33.345Z,9.60
2018-04-15T05:17:01.597Z,9.60
2018-04-15T05:19:29.849Z,9.60
2018-04-15T05:21:58.875Z,9.60
2018-04-15T05:24:27.142Z,9.60
2018-04-15T05:26:55.436Z,9.60
2018-04-15T05:29:23.682Z,9.70
2018-04-15T05:31:51.980Z,9.70
2018-04-15T05:34:20.232Z,9.60
2018-04-15T05:36:48.484Z,9.70
2018-04-15T05:39:17.508Z,9.80
2018-04-15T05:41:45.774Z,9.70
2018-04-15T05:44:14.096Z,9.90
2018-04-15T05:46:42.361Z,9.90
2018-04-15T05:49:10.632Z,10.00
2018-04-15T05:51:38.887Z,10.10
2018-04-15T05:54:07.141Z,10.20
2018-04-15T05:56:36.275Z,10.40
2018-04-15T05:59:04.527Z,10.40
2018-04-15T06:01:32.776Z,10.50
2018-04-15T06:04:01.799Z,10.90
2018-04-15T06:06:30.076Z,10.90
2018-04-15T06:08:58.367Z,11.10
2018-04-15T06:11:26.629Z,11.40
2018-04-15T06:13:54.900Z,11.80
2018-04-15T06:16:23.155Z,12.00
2018-04-15T06:18:52.193Z,12.30
2018-04-15T06:21:20.473Z,12.30
2018-04-15T06:23:48.747Z,12.70
2018-04-15T06:26:17.025Z,12.90
2018-04-15T06:28:45.318Z,13.30
2018-04-15T06:31:13.664Z,13.70
2018-04-15T06:33:41.948Z,13.70
2018-04-15T06:36:10.205Z,13.60
2018-04-15T06:38:38.503Z,13.90
2018-04-15T06:41:06.756Z,14.30
2018-04-15T06:43:35.045Z,14.50
2018-04-15T06:46:03.319Z,14.90
2018-04-15T06:48:31.580Z,15.30
2018-04-15T06:50:59.844Z,15.90
2018-04-15T06:53:28.107Z,16.30
2018-04-15T06:55:57.948Z,17.60
2018-04-15T06:58:26.213Z,17.60
2018-04-15T07:00:54.473Z,18.30
2018-04-15T07:03:23.504Z,19.60
2018-04-15T07:05:51.755Z,19.60
2018-04-15T07:08:20.009Z,20.00
2018-04-15T07:10:49.050Z,20.80
2018-04-15T07:13:17.328Z,20.80
2018-04-15T07:15:45.576Z,20.60
2018-04-15T07:18:13.882Z,20.20
2018-04-15T07:20:42.158Z,19.30
2018-04-15T07:23:10.427Z,19.00
2018-04-15T07:25:38.698Z,18.70
2018-04-15T07:28:06.959Z,18.50
2018-04-15T07:30:35.288Z,18.50
2018-04-15T07:33:03.550Z,18.60
2018-04-15T07:35:31.943Z,18.60
2018-04-15T07:38:00.196Z,18.40
2018-04-15T07:40:28.557Z,18.00
2018-04-15T07:42:56.840Z,18.40
2018-04-15T07:45:25.088Z,18.80
2018-04-15T07:47:53.353Z,19.70
2018-04-15T07:50:21.621Z,20.00
2018-04-15T07:52:50.648Z,20.10
2018-04-15T07:55:18.917Z,20.10
2018-04-15T07:57:47.195Z,19.90
2018-04-15T08:00:15.469Z,19.90
2018-04-15T08:02:43.725Z,19.80
2018-04-15T08:05:12.007Z,19.50
2018-04-15T08:07:40.363Z,19.30
2018-04-15T08:10:08.588Z,19.60
2018-04-15T08:12:36.824Z,20.00
2018-04-15T08:15:05.094Z,20.20
2018-04-15T08:17:34.125Z,20.50
2018-04-15T08:20:02.436Z,20.50
2018-04-15T08:22:30.667Z,20.90
2018-04-15T08:24:58.925Z,21.00
2018-04-15T08:27:27.174Z,21.10
2018-04-15T08:29:56.195Z,20.80
2018-04-15T08:32:24.443Z,20.80
2018-04-15T08:34:53.492Z,21.30
2018-04-15T08:37:21.741Z,21.30
2018-04-15T08:39:50.004Z,21.30
2018-04-15T08:42:18.252Z,21.00
2018-04-15T08:44:47.281Z,21.10
2018-04-15T08:47:15.586Z,21.10
2018-04-15T08:49:43.841Z,20.90
2018-04-15T08:52:12.097Z,21.20
2018-04-15T08:54:40.356Z,21.40
2018-04-15T08:57:09.376Z,21.90
2018-04-15T08:59:37.668Z,21.90
2018-04-15T09:02:05.920Z,21.70
2018-04-15T09:04:34.187Z,21.40
2018-04-15T09:07:02.509Z,21.10
2018-04-15T09:09:30.756Z,20.90
2018-04-15T09:11:59.023Z,20.60
2018-04-15T09:14:27.284Z,20.40
2018-04-15T09:16:56.347Z,19.80
2018-04-15T09:19:24.599Z,19.80
2018-04-15T09:21:52.880Z,19.60
2018-04-15T09:24:21.487Z,19.60
2018-04-15T09:26:49.825Z,19.60
2018-04-15T09:29:18.337Z,19.60
2018-04-15T09:31:46.593Z,19.60
2018-04-15T09:34:14.900Z,19.20
2018-04-15T09:36:43.232Z,18.90
2018-04-15T09:39:11.499Z,18.90
2018-04-15T09:41:39.830Z,18.80
2018-04-15T09:44:09.146Z,18.60
2018-04-15T09:46:38.192Z,18.40
2018-04-15T09:49:06.502Z,18.30
2018-04-15T09:51:34.751Z,18.20
2018-04-15T09:54:03.090Z,18.10
2018-04-15T09:56:31.540Z,17.80
2018-04-15T09:58:59.780Z,17.60
2018-04-15T10:01:28.142Z,17.50
2018-04-15T10:03:56.409Z,17.50
2018-04-15T10:06:24.671Z,17.60
2018-04-15T10:08:52.937Z,17.80
2018-04-15T10:11:21.190Z,18.00
2018-04-15T10:13:50.200Z,18.30
2018-04-15T10:16:18.463Z,18.30
2018-04-15T10:18:47.480Z,18.50
2018-04-15T10:23:50.414Z,18.40
2018-04-15T10:26:18.667Z,18.40
2018-04-15T10:28:46.931Z,18.50
2018-04-15T10:31:15.222Z,18.50
2018-04-15T10:33:43.473Z,18.60
2018-04-15T10:36:11.735Z,18.80
2018-04-15T10:38:40.791Z,19.10
2018-04-15T10:41:09.017Z,19.10
2018-04-15T10:43:37.276Z,19.00
2018-04-15T10:46:06.366Z,19.20
2018-04-15T10:48:34.577Z,19.10
2018-04-15T10:51:02.864Z,19.40
2018-04-15T10:53:31.139Z,19.10
2018-04-15T10:55:59.429Z,19.20
2018-04-15T10:58:27.695Z,19.20
2018-04-15T11:00:55.936Z,19.20
2018-04-15T11:03:24.188Z,19.20
2018-04-15T11:05:53.236Z,19.20
2018-04-15T11:08:21.492Z,19.20
2018-04-15T11:10:49.793Z,19.00
2018-04-15T11:13:18.064Z,18.90
2018-04-15T11:15:46.327Z,19.10
2018-04-15T11:18:14.603Z,19.20
2018-04-15T11:20:42.852Z,19.30
2018-04-15T11:23:11.118Z,19.40
2018-04-15T11:25:40.132Z,19.80
2018-04-15T11:28:08.424Z,19.80
2018-04-15T11:30:36.688Z,19.80
2018-04-15T11:33:04.933Z,19.80
2018-04-15T11:35:33.956Z,20.00
2018-04-15T11:38:02.240Z,19.90
2018-04-15T11:40:30.495Z,20.10
2018-04-15T11:42:58.792Z,20.10
2018-04-15T11:45:27.076Z,20.10
2018-04-15T11:47:55.411Z,20.10
2018-04-15T11:50:24.431Z,19.80
2018-04-15T11:52:52.689Z,19.80
2018-04-15T11:55:20.935Z,19.70
2018-04-15T11:57:49.273Z,19.60
2018-04-15T12:00:17.537Z,19.30
2018-04-15T12:02:45.799Z,19.10
2018-04-15T12:05:14.077Z,19.00
2018-04-15T12:07:42.333Z,18.80
2018-04-15T12:10:10.622Z,18.70
2018-04-15T12:12:39.603Z,18.40
2018-04-15T12:15:07.919Z,18.40
2018-04-15T12:17:36.172Z,18.30
2018-04-15T12:20:04.433Z,18.30
2018-04-15T12:22:32.745Z,18.40
2018-04-15T12:25:01.014Z,18.40
2018-04-15T12:27:29.290Z,18.40
2018-04-15T12:29:57.570Z,18.40
2018-04-15T12:32:25.835Z,18.30
2018-04-15T12:34:54.084Z,18.30
2018-04-15T12:37:22.400Z,18.40
2018-04-15T12:39:50.668Z,18.40
2018-04-15T12:42:18.942Z,18.50
2018-04-15T12:44:47.194Z,18.30
2018-04-15T12:47:15.512Z,18.30
2018-04-15T12:49:43.772Z,18.40
2018-04-15T12:52:12.044Z,18.20
2018-04-15T12:54:40.325Z,17.80
2018-04-15T12:57:08.601Z,17.40
2018-04-15T12:59:36.902Z,17.20
2018-04-15T13:02:05.261Z,17.30
2018-04-15T13:04:33.528Z,17.40
2018-04-15T13:07:01.805Z,17.40
2018-04-15T13:09:30.073Z,17.40
2018-04-15T13:11:58.324Z,17.40
2018-04-15T13:14:26.580Z,17.40
2018-04-15T13:16:55.637Z,17.50
2018-04-15T13:19:23.855Z,17.50
2018-04-15T13:21:52.873Z,17.40
2018-04-15T13:24:21.174Z,17.40
2018-04-15T13:26:49.440Z,17.40
2018-04-15T13:29:17.704Z,17.20
2018-04-15T13:31:45.984Z,17.30
2018-04-15T13:34:14.244Z,17.30
2018-04-15T13:36:42.496Z,17.40
2018-04-15T13:39:11.515Z,17.20
2018-04-15T13:41:39.826Z,17.20
2018-04-15T13:44:08.077Z,17.10
2018-04-15T13:46:36.368Z,16.90
2018-04-15T13:49:04.636Z,16.90
2018-04-15T13:51:32.884Z,17.00
2018-04-15T13:54:01.175Z,17.00
2018-04-15T13:56:29.411Z,17.20
2018-04-15T13:58:58.445Z,17.20
2018-04-15T14:01:26.700Z,17.20
2018-04-15T14:03:54.962Z,17.10
2018-04-15T14:06:23.985Z,17.20
2018-04-15T14:08:52.239Z,17.20
2018-04-15T14:11:20.548Z,17.10
2018-04-15T14:13:48.812Z,17.10
2018-04-15T14:16:17.110Z,17.00
2018-04-15T14:18:45.380Z,17.00
2018-04-15T14:21:13.630Z,17.00
2018-04-15T14:23:41.891Z,17.10
2018-04-15T14:26:10.209Z,17.10
2018-04-15T14:28:38.464Z,17.10
2018-04-15T14:31:06.716Z,17.00
2018-04-15T14:33:34.984Z,17.00
2018-04-15T14:36:03.998Z,17.20
2018-04-15T14:38:32.283Z,17.20
2018-04-15T14:41:00.539Z,17.30
2018-04-15T14:43:28.850Z,17.30
2018-04-15T14:45:57.096Z,17.30
2018-04-15T14:48:25.353Z,17.30
2018-04-15T14:50:54.382Z,17.40
2018-04-15T14:53:22.641Z,17.30
2018-04-15T14:55:50.936Z,17.40
2018-04-15T14:58:19.188Z,17.40
2018-04-15T15:00:47.448Z,17.40
2018-04-15T15:03:15.764Z,17.40
2018-04-15T15:05:44.039Z,17.50
2018-04-15T15:08:12.288Z,17.50
2018-04-15T15:10:40.561Z,17.50
2018-04-15T15:13:08.866Z,17.50
2018-04-15T15:15:37.119Z,17.60
2018-04-15T15:18:05.418Z,17.60
2018-04-15T15:20:33.690Z,17.50
2018-04-15T15:23:01.945Z,17.60
2018-04-15T15:25:30.244Z,17.70
2018-04-15T15:27:58.503Z,17.80
2018-04-15T15:30:26.792Z,17.80
2018-04-15T15:32:55.043Z,17.90
2018-04-15T15:35:23.345Z,17.90
2018-04-15T15:37:51.606Z,18.00
2018-04-15T15:40:19.885Z,18.00
2018-04-15T15:42:48.142Z,18.10
2018-04-15T15:45:16.415Z,18.10
2018-04-15T15:47:44.676Z,18.10
2018-04-15T15:50:13.695Z,18.20
2018-04-15T15:52:41.951Z,18.20
2018-04-15T15:55:10.985Z,18.10
2018-04-15T15:57:39.249Z,18.10
2018-04-15T16:00:07.554Z,18.10
2018-04-15T16:02:35.751Z,18.10
2018-04-15T16:05:04.795Z,18.20
2018-04-15T16:07:33.104Z,18.20
2018-04-15T16:10:01.444Z,18.30
2018-04-15T16:12:29.701Z,18.40
2018-04-15T16:14:57.980Z,18.50
2018-04-15T16:17:26.241Z,18.50
2018-04-15T16:19:55.263Z,18.20
2018-04-15T16:22:23.513Z,18.10
2018-04-15T16:24:51.767Z,18.10
2018-04-15T16:27:20.801Z,17.90
2018-04-15T16:29:49.093Z,17.90
2018-04-15T16:32:17.339Z,17.80
2018-04-15T16:34:45.605Z,17.80
2018-04-15T16:37:14.607Z,17.70
2018-04-15T16:39:42.909Z,17.70
2018-04-15T16:42:11.155Z,17.70
2018-04-15T16:44:39.417Z,17.70
2018-04-15T16:47:08.428Z,17.60
2018-04-15T16:49:36.698Z,17.60
2018-04-15T16:52:04.946Z,17.50
2018-04-15T16:54:33.277Z,17.40
2018-04-15T16:57:01.545Z,17.30
2018-04-15T16:59:29.809Z,17.20
2018-04-15T17:01:58.062Z,17.20
2018-04-15T17:04:27.083Z,17.10
2018-04-15T17:06:55.367Z,17.20
2018-04-15T17:09:23.625Z,17.20
2018-04-15T17:11:51.919Z,17.20
2018-04-15T17:14:20.168Z,17.20
2018-04-15T17:16:48.430Z,17.20
2018-04-15T17:19:17.499Z,17.20
2018-04-15T17:21:45.749Z,17.20
2018-04-15T17:24:14.008Z,17.20
2018-04-15T17:26:42.270Z,17.10
2018-04-15T17:29:10.559Z,17.10
2018-04-15T17:31:38.822Z,17.00
2018-04-15T17:34:07.117Z,16.90
2018-04-15T17:36:35.394Z,16.80
2018-04-15T17:39:03.651Z,16.70
2018-04-15T17:41:31.914Z,16.70
2018-04-15T17:44:00.174Z,16.60
2018-04-15T17:46:29.309Z,16.50
2018-04-15T17:48:57.555Z,16.50
2018-04-15T17:51:25.818Z,16.50
2018-04-15T17:53:54.834Z,16.30
2018-04-15T17:56:23.091Z,16.30
2018-04-15T17:58:51.429Z,16.30
2018-04-15T18:01:19.681Z,16.20
2018-04-15T18:03:47.961Z,16.10
2018-04-15T18:06:16.235Z,16.00
2018-04-15T18:08:44.490Z,15.90
2018-04-15T18:11:12.755Z,15.90
2018-04-15T18:13:41.014Z,15.90
2018-04-15T18:16:10.058Z,15.70
2018-04-15T18:18:38.332Z,15.70
2018-04-15T18:21:06.717Z,15.70
2018-04-15T18:23:34.957Z,15.70
2018-04-15T18:26:03.233Z,15.60
2018-04-15T18:28:31.527Z,15.60
2018-04-15T18:30:59.788Z,15.50
2018-04-15T18:33:28.042Z,15.50
2018-04-15T18:35:56.339Z,15.40
2018-04-15T18:38:24.574Z,15.40
2018-04-15T18:40:53.664Z,15.30
2018-04-15T18:43:22.754Z,15.30
2018-04-15T18:45:50.995Z,15.20
2018-04-15T18:48:20.017Z,15.20
2018-04-15T18:50:48.281Z,15.20
2018-04-15T18:53:16.538Z,15.20
2018-04-15T18:55:44.802Z,15.20
2018-04-15T18:58:13.068Z,15.20
2018-04-15T19:00:41.328Z,15.10
2018-04-15T19:03:09.586Z,15.10
2018-04-15T19:05:38.616Z,15.00
2018-04-15T19:08:06.861Z,15.00
2018-04-15T19:10:35.122Z,15.00
2018-04-15T19:13:04.618Z,14.90
2018-04-15T19:15:32.857Z,14.90
2018-04-15T19:18:01.116Z,14.90
2018-04-15T19:20:29.380Z,14.80
2018-04-15T19:22:57.644Z,14.80
2018-04-15T19:25:26.655Z,14.70
2018-04-15T19:27:54.919Z,14.70
2018-04-15T19:30:23.201Z,14.60
2018-04-15T19:32:51.465Z,14.60
2018-04-15T19:35:19.721Z,14.60
2018-04-15T19:37:48.756Z,14.50
2018-04-15T19:40:17.018Z,14.50
2018-04-15T19:42:45.277Z,14.40
2018-04-15T19:45:14.326Z,14.40
2018-04-15T19:47:42.632Z,14.40
2018-04-15T19:50:12.380Z,14.30
2018-04-15T19:52:40.655Z,14.30
2018-04-15T19:55:09.228Z,14.40
2018-04-15T19:57:38.245Z,14.30
2018-04-15T20:00:06.502Z,14.30
2018-04-15T20:02:34.781Z,14.30
2018-04-15T20:05:03.028Z,14.30
2018-04-15T20:07:32.105Z,14.30
2018-04-15T20:10:00.364Z,14.20
2018-04-15T20:12:28.610Z,14.30
2018-04-15T20:14:56.869Z,14.30
2018-04-15T20:17:25.129Z,14.30
2018-04-15T20:19:54.148Z,14.30
2018-04-15T20:22:22.414Z,14.30
2018-04-15T20:24:50.672Z,14.30
2018-04-15T20:27:18.920Z,14.30
2018-04-15T20:29:47.185Z,14.30
2018-04-15T20:32:15.440Z,14.30
2018-04-15T20:34:43.700Z,14.30
2018-04-15T20:37:11.962Z,14.20
2018-04-15T20:39:41.788Z,14.20
2018-04-15T20:42:10.067Z,14.10
2018-04-15T20:44:38.329Z,14.20
2018-04-15T20:47:06.625Z,14.20
2018-04-15T20:49:34.876Z,14.20
2018-04-15T20:52:03.180Z,14.20
2018-04-15T20:54:31.452Z,14.10
2018-04-15T20:56:59.723Z,14.10
2018-04-15T20:59:28.043Z,14.10
2018-04-15T21:01:57.076Z,14.00
2018-04-15T21:04:25.368Z,14.00
2018-04-15T21:06:53.628Z,14.00
2018-04-15T21:09:21.885Z,14.00
2018-04-15T21:11:50.155Z,14.00
2018-04-15T21:14:19.178Z,14.00
2018-04-15T21:16:47.436Z,14.00
2018-04-15T21:19:15.688Z,14.00
2018-04-15T21:21:44.734Z,14.00
2018-04-15T21:24:12.985Z,13.90
2018-04-15T21:26:41.237Z,13.90
2018-04-15T21:29:10.290Z,13.90
2018-04-15T21:31:38.561Z,13.90
2018-04-15T21:34:06.834Z,13.90
2018-04-15T21:36:35.113Z,13.90
2018-04-15T21:39:03.489Z,13.90
2018-04-15T21:41:31.743Z,13.80
2018-04-15T21:44:00.028Z,13.80
2018-04-15T21:46:28.263Z,13.80
2018-04-15T21:48:57.351Z,13.80
2018-04-15T21:51:25.581Z,13.80
2018-04-15T21:53:53.844Z,13.90
2018-04-15T21:56:22.096Z,13.80
2018-04-15T21:58:50.418Z,13.80
2018-04-15T22:01:18.668Z,13.80
2018-04-15T22:03:46.933Z,13.80
2018-04-15T22:06:15.192Z,13.80
2018-04-15T22:08:44.329Z,13.80
2018-04-15T22:11:12.589Z,13.80
2018-04-15T22:13:40.846Z,13.80
2018-04-15T22:16:09.143Z,13.80
2018-04-15T22:18:37.396Z,13.80
2018-04-15T22:21:05.701Z,13.80
2018-04-15T22:23:33.955Z,13.70
2018-04-15T22:26:02.229Z,13.70
2018-04-15T22:28:30.491Z,13.70
2018-04-15T22:30:59.558Z,13.70
2018-04-15T22:33:27.804Z,13.60
2018-04-15T22:35:56.073Z,13.60
2018-04-15T22:38:24.337Z,13.60
2018-04-15T22:40:52.626Z,13.60
2018-04-15T22:43:20.899Z,13.60
2018-04-15T22:45:49.161Z,13.60
2018-04-15T22:48:17.423Z,13.60
2018-04-15T22:50:45.684Z,13.50
2018-04-15T22:53:14.699Z,13.50
2018-04-15T22:55:42.960Z,13.50
2018-04-15T22:58:11.216Z,13.50
2018-04-15T23:00:40.379Z,13.40
2018-04-15T23:03:08.637Z,13.40
2018-04-15T23:05:36.891Z,13.40
2018-04-15T23:08:05.203Z,13.40
2018-04-15T23:10:33.455Z,13.40
2018-04-15T23:13:01.718Z,13.40
2018-04-15T23:15:29.975Z,13.50
2018-04-15T23:17:59.019Z,13.40
2018-04-15T23:20:27.273Z,13.40
2018-04-15T23:22:55.583Z,13.50
2018-04-15T23:25:23.917Z,13.40
2018-04-15T23:27:53.071Z,13.50
2018-04-15T23:30:21.316Z,13.40
2018-04-15T23:32:49.618Z,13.40
2018-04-15T23:35:19.372Z,13.40
2018-04-15T23:37:47.675Z,13.40
2018-04-15T23:40:15.937Z,13.30
2018-04-15T23:42:44.196Z,13.30
2018-04-15T23:45:12.455Z,13.30
2018-04-15T23:47:41.507Z,13.30
2018-04-15T23:50:09.769Z,13.30
2018-04-15T23:52:38.029Z,13.30
2018-04-15T23:55:06.324Z,13.30
2018-04-15T23:57:34.591Z,13.30
